sensor_id;sensor_type;location;lat;lon;timestamp;P1;durP1;ratioP1;P2;durP2;ratioP2
450;SDS011;212;48.748;9.174;2022-09-09T00:00:49;1.13;;;1.10;;
450;SDS011;212;48.748;9.174;2022-09-09T00:03:22;8.03;;;1.80;;
450;SDS011;212;48.748;9.174;2022-09-09T00:05:54;1.50;;;1.30;;
450;SDS011;212;48.748;9.174;2022-09-09T00:08:27;2.63;;;1.63;;
450;SDS011;212;48.748;9.174;2022-09-09T00:11:05;1.37;;;1.23;;
450;SDS011;212;48.748;9.174;2022-09-09T00:13:34;3.93;;;1.70;;
450;SDS011;212;48.748;9.174;2022-09-09T00:16:07;4.73;;;1.40;;
450;SDS011;212;48.748;9.174;2022-09-09T00:18:46;3.43;;;2.23;;
450;SDS011;212;48.748;9.174;2022-09-09T00:21:19;1.50;;;1.40;;
450;SDS011;212;48.748;9.174;2022-09-09T00:23:50;1.73;;;1.63;;
450;SDS011;212;48.748;9.174;2022-09-09T00:26:20;2.67;;;2.17;;
450;SDS011;212;48.748;9.174;2022-09-09T00:28:58;6.63;;;2.13;;
450;SDS011;212;48.748;9.174;2022-09-09T00:31:35;3.30;;;1.70;;
450;SDS011;212;48.748;9.174;2022-09-09T00:34:03;3.63;;;1.70;;
450;SDS011;212;48.748;9.174;2022-09-09T00:36:39;2.77;;;1.50;;
450;SDS011;212;48.748;9.174;2022-09-09T00:39:08;1.60;;;1.53;;
450;SDS011;212;48.748;9.174;2022-09-09T00:41:43;2.60;;;1.50;;
450;SDS011;212;48.748;9.174;2022-09-09T00:44:25;3.50;;;1.27;;
450;SDS011;212;48.748;9.174;2022-09-09T00:47:04;2.10;;;1.27;;
450;SDS011;212;48.748;9.174;2022-09-09T00:49:42;2.80;;;2.03;;
450;SDS011;212;48.748;9.174;2022-09-09T00:52:23;2.20;;;1.80;;
450;SDS011;212;48.748;9.174;2022-09-09T00:54:57;3.43;;;1.77;;
450;SDS011;212;48.748;9.174;2022-09-09T00:57:31;5.33;;;1.63;;
450;SDS011;212;48.748;9.174;2022-09-09T01:00:14;2.70;;;1.50;;
450;SDS011;212;48.748;9.174;2022-09-09T01:02:45;4.77;;;1.73;;
450;SDS011;212;48.748;9.174;2022-09-09T01:05:25;2.47;;;1.53;;
450;SDS011;212;48.748;9.174;2022-09-09T01:08:00;1.47;;;1.47;;
450;SDS011;212;48.748;9.174;2022-09-09T01:10:30;2.37;;;1.07;;
450;SDS011;212;48.748;9.174;2022-09-09T01:13:08;2.93;;;1.40;;
450;SDS011;212;48.748;9.174;2022-09-09T01:15:42;1.80;;;1.60;;
450;SDS011;212;48.748;9.174;2022-09-09T01:18:12;1.90;;;1.50;;
450;SDS011;212;48.748;9.174;2022-09-09T01:20:44;2.10;;;1.53;;
450;SDS011;212;48.748;9.174;2022-09-09T01:26:17;2.53;;;1.50;;
450;SDS011;212;48.748;9.174;2022-09-09T01:28:48;3.60;;;1.70;;
450;SDS011;212;48.748;9.174;2022-09-09T01:31:18;1.90;;;1.50;;
450;SDS011;212;48.748;9.174;2022-09-09T01:33:47;3.93;;;1.40;;
450;SDS011;212;48.748;9.174;2022-09-09T01:36:16;1.40;;;1.30;;
450;SDS011;212;48.748;9.174;2022-09-09T01:38:47;2.10;;;1.37;;
450;SDS011;212;48.748;9.174;2022-09-09T01:41:14;1.40;;;1.10;;
450;SDS011;212;48.748;9.174;2022-09-09T01:43:42;2.23;;;1.67;;
450;SDS011;212;48.748;9.174;2022-09-09T01:46:09;5.60;;;1.60;;
450;SDS011;212;48.748;9.174;2022-09-09T01:48:37;3.00;;;1.50;;
450;SDS011;212;48.748;9.174;2022-09-09T01:51:03;2.77;;;1.37;;
450;SDS011;212;48.748;9.174;2022-09-09T01:53:30;1.80;;;1.20;;
450;SDS011;212;48.748;9.174;2022-09-09T01:56:00;4.40;;;1.40;;
450;SDS011;212;48.748;9.174;2022-09-09T01:58:34;3.23;;;1.50;;
450;SDS011;212;48.748;9.174;2022-09-09T02:01:12;2.40;;;1.13;;
450;SDS011;212;48.748;9.174;2022-09-09T02:03:49;1.33;;;1.23;;
450;SDS011;212;48.748;9.174;2022-09-09T02:06:22;4.73;;;2.20;;
450;SDS011;212;48.748;9.174;2022-09-09T02:08:55;1.97;;;1.43;;
450;SDS011;212;48.748;9.174;2022-09-09T02:11:25;2.90;;;1.47;;
450;SDS011;212;48.748;9.174;2022-09-09T02:13:54;1.83;;;1.23;;
450;SDS011;212;48.748;9.174;2022-09-09T02:16:26;2.60;;;1.30;;
450;SDS011;212;48.748;9.174;2022-09-09T02:18:57;2.60;;;1.47;;
450;SDS011;212;48.748;9.174;2022-09-09T02:21:30;3.57;;;1.67;;
450;SDS011;212;48.748;9.174;2022-09-09T02:24:02;3.00;;;2.00;;
450;SDS011;212;48.748;9.174;2022-09-09T02:26:32;1.53;;;1.47;;
450;SDS011;212;48.748;9.174;2022-09-09T02:29:03;4.20;;;1.30;;
450;SDS011;212;48.748;9.174;2022-09-09T02:31:34;4.90;;;1.50;;
450;SDS011;212;48.748;9.174;2022-09-09T02:34:02;2.10;;;1.40;;
450;SDS011;212;48.748;9.174;2022-09-09T02:36:32;1.70;;;1.40;;
450;SDS011;212;48.748;9.174;2022-09-09T02:39:01;3.53;;;1.53;;
450;SDS011;212;48.748;9.174;2022-09-09T02:41:30;3.40;;;1.20;;
450;SDS011;212;48.748;9.174;2022-09-09T02:43:58;1.60;;;1.07;;
450;SDS011;212;48.748;9.174;2022-09-09T02:46:35;2.03;;;1.70;;
450;SDS011;212;48.748;9.174;2022-09-09T02:49:14;2.10;;;1.50;;
450;SDS011;212;48.748;9.174;2022-09-09T02:51:48;3.10;;;1.57;;
450;SDS011;212;48.748;9.174;2022-09-09T02:54:21;1.90;;;1.10;;
450;SDS011;212;48.748;9.174;2022-09-09T02:56:56;1.77;;;1.20;;
450;SDS011;212;48.748;9.174;2022-09-09T02:59:30;1.00;;;1.00;;
450;SDS011;212;48.748;9.174;2022-09-09T03:01:58;3.70;;;1.33;;
450;SDS011;212;48.748;9.174;2022-09-09T03:04:25;3.40;;;1.10;;
450;SDS011;212;48.748;9.174;2022-09-09T03:06:51;4.83;;;1.40;;
450;SDS011;212;48.748;9.174;2022-09-09T03:09:18;2.20;;;1.30;;
450;SDS011;212;48.748;9.174;2022-09-09T03:11:45;4.17;;;1.33;;
450;SDS011;212;48.748;9.174;2022-09-09T03:14:11;1.83;;;1.73;;
450;SDS011;212;48.748;9.174;2022-09-09T03:16:38;2.63;;;1.10;;
450;SDS011;212;48.748;9.174;2022-09-09T03:19:06;1.63;;;1.30;;
450;SDS011;212;48.748;9.174;2022-09-09T03:21:33;2.70;;;1.20;;
450;SDS011;212;48.748;9.174;2022-09-09T03:24:00;3.20;;;1.43;;
450;SDS011;212;48.748;9.174;2022-09-09T03:26:28;2.10;;;1.37;;
450;SDS011;212;48.748;9.174;2022-09-09T03:28:55;2.40;;;1.47;;
450;SDS011;212;48.748;9.174;2022-09-09T03:31:22;3.50;;;1.37;;
450;SDS011;212;48.748;9.174;2022-09-09T03:33:49;3.03;;;1.40;;
450;SDS011;212;48.748;9.174;2022-09-09T03:36:17;4.23;;;1.67;;
450;SDS011;212;48.748;9.174;2022-09-09T03:38:43;3.43;;;1.37;;
450;SDS011;212;48.748;9.174;2022-09-09T03:41:10;1.53;;;1.40;;
450;SDS011;212;48.748;9.174;2022-09-09T03:43:37;1.83;;;1.20;;
450;SDS011;212;48.748;9.174;2022-09-09T03:46:05;3.27;;;1.33;;
450;SDS011;212;48.748;9.174;2022-09-09T03:48:31;1.43;;;1.17;;
450;SDS011;212;48.748;9.174;2022-09-09T03:50:58;2.47;;;1.50;;
450;SDS011;212;48.748;9.174;2022-09-09T03:53:27;1.53;;;1.30;;
450;SDS011;212;48.748;9.174;2022-09-09T03:55:55;1.43;;;1.03;;
450;SDS011;212;48.748;9.174;2022-09-09T03:58:25;3.93;;;1.50;;
450;SDS011;212;48.748;9.174;2022-09-09T04:00:53;3.97;;;1.70;;
450;SDS011;212;48.748;9.174;2022-09-09T04:03:21;2.37;;;1.23;;
450;SDS011;212;48.748;9.174;2022-09-09T04:05:49;4.13;;;1.60;;
450;SDS011;212;48.748;9.174;2022-09-09T04:08:16;2.97;;;1.80;;
450;SDS011;212;48.748;9.174;2022-09-09T04:10:45;2.30;;;1.43;;
450;SDS011;212;48.748;9.174;2022-09-09T04:13:13;3.20;;;1.30;;
450;SDS011;212;48.748;9.174;2022-09-09T04:15:41;4.03;;;1.63;;
450;SDS011;212;48.748;9.174;2022-09-09T04:18:08;3.30;;;1.40;;
450;SDS011;212;48.748;9.174;2022-09-09T04:20:35;3.00;;;1.70;;
450;SDS011;212;48.748;9.174;2022-09-09T04:23:02;1.73;;;1.70;;
450;SDS011;212;48.748;9.174;2022-09-09T04:25:28;2.90;;;1.30;;
450;SDS011;212;48.748;9.174;2022-09-09T04:27:57;4.55;;;1.85;;
450;SDS011;212;48.748;9.174;2022-09-09T04:30:24;2.40;;;1.57;;
450;SDS011;212;48.748;9.174;2022-09-09T04:32:52;1.52;;;1.42;;
450;SDS011;212;48.748;9.174;2022-09-09T04:35:19;2.70;;;1.50;;
450;SDS011;212;48.748;9.174;2022-09-09T04:37:46;2.47;;;1.60;;
450;SDS011;212;48.748;9.174;2022-09-09T04:40:13;1.50;;;1.40;;
450;SDS011;212;48.748;9.174;2022-09-09T04:42:40;2.40;;;1.50;;
450;SDS011;212;48.748;9.174;2022-09-09T04:45:10;1.40;;;1.30;;
450;SDS011;212;48.748;9.174;2022-09-09T04:47:38;1.60;;;1.50;;
450;SDS011;212;48.748;9.174;2022-09-09T04:50:06;9.87;;;2.40;;
450;SDS011;212;48.748;9.174;2022-09-09T04:52:33;2.73;;;1.40;;
450;SDS011;212;48.748;9.174;2022-09-09T04:55:00;1.90;;;1.40;;
450;SDS011;212;48.748;9.174;2022-09-09T04:57:26;2.17;;;1.80;;
450;SDS011;212;48.748;9.174;2022-09-09T04:59:53;5.73;;;2.00;;
450;SDS011;212;48.748;9.174;2022-09-09T05:02:21;3.00;;;2.00;;
450;SDS011;212;48.748;9.174;2022-09-09T05:04:48;2.47;;;1.83;;
450;SDS011;212;48.748;9.174;2022-09-09T05:07:15;3.60;;;1.67;;
450;SDS011;212;48.748;9.174;2022-09-09T05:09:42;7.43;;;3.07;;
450;SDS011;212;48.748;9.174;2022-09-09T05:12:10;2.03;;;1.40;;
450;SDS011;212;48.748;9.174;2022-09-09T05:14:37;4.70;;;1.90;;
450;SDS011;212;48.748;9.174;2022-09-09T05:17:03;8.20;;;2.33;;
450;SDS011;212;48.748;9.174;2022-09-09T05:19:32;3.97;;;1.70;;
450;SDS011;212;48.748;9.174;2022-09-09T05:21:58;5.27;;;1.63;;
450;SDS011;212;48.748;9.174;2022-09-09T05:24:26;2.53;;;1.70;;
450;SDS011;212;48.748;9.174;2022-09-09T05:26:52;5.13;;;2.47;;
450;SDS011;212;48.748;9.174;2022-09-09T05:29:24;1.90;;;1.73;;
450;SDS011;212;48.748;9.174;2022-09-09T05:31:51;3.07;;;1.60;;
450;SDS011;212;48.748;9.174;2022-09-09T05:34:18;2.30;;;1.80;;
450;SDS011;212;48.748;9.174;2022-09-09T05:36:47;3.07;;;1.40;;
450;SDS011;212;48.748;9.174;2022-09-09T05:39:13;1.93;;;1.30;;
450;SDS011;212;48.748;9.174;2022-09-09T05:41:40;2.17;;;1.67;;
450;SDS011;212;48.748;9.174;2022-09-09T05:44:06;2.47;;;1.40;;
450;SDS011;212;48.748;9.174;2022-09-09T05:46:33;5.07;;;1.40;;
450;SDS011;212;48.748;9.174;2022-09-09T05:49:00;3.53;;;1.80;;
450;SDS011;212;48.748;9.174;2022-09-09T05:51:30;1.80;;;1.60;;
450;SDS011;212;48.748;9.174;2022-09-09T05:53:58;4.23;;;1.67;;
450;SDS011;212;48.748;9.174;2022-09-09T05:56:26;3.60;;;1.40;;
450;SDS011;212;48.748;9.174;2022-09-09T05:58:54;1.97;;;1.50;;
450;SDS011;212;48.748;9.174;2022-09-09T06:01:21;1.73;;;1.50;;
450;SDS011;212;48.748;9.174;2022-09-09T06:03:50;3.20;;;1.40;;
450;SDS011;212;48.748;9.174;2022-09-09T06:06:18;3.13;;;1.80;;
450;SDS011;212;48.748;9.174;2022-09-09T06:08:46;4.00;;;1.40;;
450;SDS011;212;48.748;9.174;2022-09-09T06:11:17;2.30;;;1.53;;
450;SDS011;212;48.748;9.174;2022-09-09T06:13:45;3.80;;;2.10;;
450;SDS011;212;48.748;9.174;2022-09-09T06:16:13;4.17;;;2.10;;
450;SDS011;212;48.748;9.174;2022-09-09T06:18:41;1.70;;;1.23;;
450;SDS011;212;48.748;9.174;2022-09-09T06:21:09;3.63;;;2.17;;
450;SDS011;212;48.748;9.174;2022-09-09T06:23:39;1.93;;;1.30;;
450;SDS011;212;48.748;9.174;2022-09-09T06:26:07;3.07;;;1.50;;
450;SDS011;212;48.748;9.174;2022-09-09T06:28:37;2.07;;;1.60;;
450;SDS011;212;48.748;9.174;2022-09-09T06:31:05;1.50;;;1.40;;
450;SDS011;212;48.748;9.174;2022-09-09T06:33:35;4.60;;;1.73;;
450;SDS011;212;48.748;9.174;2022-09-09T06:36:04;4.40;;;2.33;;
450;SDS011;212;48.748;9.174;2022-09-09T06:38:31;2.77;;;1.43;;
450;SDS011;212;48.748;9.174;2022-09-09T06:40:58;3.10;;;1.57;;
450;SDS011;212;48.748;9.174;2022-09-09T06:43:26;5.17;;;1.90;;
450;SDS011;212;48.748;9.174;2022-09-09T06:45:56;7.00;;;2.03;;
450;SDS011;212;48.748;9.174;2022-09-09T06:48:24;3.17;;;1.40;;
450;SDS011;212;48.748;9.174;2022-09-09T06:50:51;3.47;;;1.90;;
450;SDS011;212;48.748;9.174;2022-09-09T06:53:26;1.67;;;1.23;;
450;SDS011;212;48.748;9.174;2022-09-09T06:55:53;2.60;;;1.63;;
450;SDS011;212;48.748;9.174;2022-09-09T06:58:20;2.80;;;1.70;;
450;SDS011;212;48.748;9.174;2022-09-09T07:00:48;1.73;;;1.63;;
450;SDS011;212;48.748;9.174;2022-09-09T07:03:16;2.23;;;1.53;;
450;SDS011;212;48.748;9.174;2022-09-09T07:05:43;2.47;;;1.80;;
450;SDS011;212;48.748;9.174;2022-09-09T07:08:19;1.57;;;1.43;;
450;SDS011;212;48.748;9.174;2022-09-09T07:10:45;6.90;;;1.60;;
450;SDS011;212;48.748;9.174;2022-09-09T07:13:12;4.77;;;2.97;;
450;SDS011;212;48.748;9.174;2022-09-09T07:15:40;4.23;;;1.40;;
450;SDS011;212;48.748;9.174;2022-09-09T07:18:07;3.43;;;1.70;;
450;SDS011;212;48.748;9.174;2022-09-09T07:20:36;8.23;;;3.00;;
450;SDS011;212;48.748;9.174;2022-09-09T07:23:03;3.57;;;1.70;;
450;SDS011;212;48.748;9.174;2022-09-09T07:25:29;6.83;;;2.20;;
450;SDS011;212;48.748;9.174;2022-09-09T07:27:56;2.50;;;1.23;;
450;SDS011;212;48.748;9.174;2022-09-09T07:30:23;11.63;;;3.07;;
450;SDS011;212;48.748;9.174;2022-09-09T07:32:50;4.73;;;1.43;;
450;SDS011;212;48.748;9.174;2022-09-09T07:35:17;3.23;;;1.47;;
450;SDS011;212;48.748;9.174;2022-09-09T07:37:46;3.10;;;1.73;;
450;SDS011;212;48.748;9.174;2022-09-09T07:40:13;10.03;;;1.47;;
450;SDS011;212;48.748;9.174;2022-09-09T07:42:40;4.50;;;1.37;;
450;SDS011;212;48.748;9.174;2022-09-09T07:45:06;2.57;;;1.40;;
450;SDS011;212;48.748;9.174;2022-09-09T07:47:33;2.70;;;1.20;;
450;SDS011;212;48.748;9.174;2022-09-09T07:50:00;4.50;;;0.93;;
450;SDS011;212;48.748;9.174;2022-09-09T07:52:27;4.00;;;1.43;;
450;SDS011;212;48.748;9.174;2022-09-09T07:54:55;1.87;;;1.20;;
450;SDS011;212;48.748;9.174;2022-09-09T07:57:22;5.43;;;1.70;;
450;SDS011;212;48.748;9.174;2022-09-09T07:59:49;4.20;;;1.40;;
450;SDS011;212;48.748;9.174;2022-09-09T08:02:15;2.27;;;1.07;;
450;SDS011;212;48.748;9.174;2022-09-09T08:04:42;3.77;;;0.80;;
450;SDS011;212;48.748;9.174;2022-09-09T08:07:09;4.00;;;1.07;;
450;SDS011;212;48.748;9.174;2022-09-09T08:09:36;2.90;;;1.70;;
450;SDS011;212;48.748;9.174;2022-09-09T08:12:04;3.07;;;1.40;;
450;SDS011;212;48.748;9.174;2022-09-09T08:14:34;3.10;;;1.77;;
450;SDS011;212;48.748;9.174;2022-09-09T08:17:00;1.40;;;1.30;;
450;SDS011;212;48.748;9.174;2022-09-09T08:19:27;1.20;;;1.13;;
450;SDS011;212;48.748;9.174;2022-09-09T08:21:55;2.70;;;1.53;;
450;SDS011;212;48.748;9.174;2022-09-09T08:24:22;3.03;;;1.30;;
450;SDS011;212;48.748;9.174;2022-09-09T08:26:48;3.57;;;1.30;;
450;SDS011;212;48.748;9.174;2022-09-09T08:29:17;3.53;;;1.20;;
450;SDS011;212;48.748;9.174;2022-09-09T08:31:44;4.23;;;1.43;;
450;SDS011;212;48.748;9.174;2022-09-09T08:34:12;2.83;;;1.37;;
450;SDS011;212;48.748;9.174;2022-09-09T08:36:41;2.27;;;1.23;;
450;SDS011;212;48.748;9.174;2022-09-09T08:39:09;2.63;;;1.20;;
450;SDS011;212;48.748;9.174;2022-09-09T08:41:51;5.93;;;1.80;;
450;SDS011;212;48.748;9.174;2022-09-09T08:44:45;3.00;;;1.30;;
450;SDS011;212;48.748;9.174;2022-09-09T08:47:23;5.00;;;1.80;;
450;SDS011;212;48.748;9.174;2022-09-09T08:50:06;2.30;;;0.80;;
450;SDS011;212;48.748;9.174;2022-09-09T08:52:44;2.93;;;1.00;;
450;SDS011;212;48.748;9.174;2022-09-09T08:55:20;1.70;;;1.33;;
450;SDS011;212;48.748;9.174;2022-09-09T08:57:51;3.10;;;1.43;;
450;SDS011;212;48.748;9.174;2022-09-09T09:00:22;2.30;;;1.30;;
450;SDS011;212;48.748;9.174;2022-09-09T09:02:54;2.80;;;1.10;;
450;SDS011;212;48.748;9.174;2022-09-09T09:05:31;6.43;;;2.33;;
450;SDS011;212;48.748;9.174;2022-09-09T09:08:08;2.33;;;1.30;;
450;SDS011;212;48.748;9.174;2022-09-09T09:10:45;4.27;;;1.23;;
450;SDS011;212;48.748;9.174;2022-09-09T09:13:14;4.80;;;1.47;;
450;SDS011;212;48.748;9.174;2022-09-09T09:15:46;3.50;;;1.70;;
450;SDS011;212;48.748;9.174;2022-09-09T09:18:15;3.30;;;1.47;;
450;SDS011;212;48.748;9.174;2022-09-09T09:20:49;2.67;;;1.13;;
450;SDS011;212;48.748;9.174;2022-09-09T09:23:21;4.57;;;1.37;;
450;SDS011;212;48.748;9.174;2022-09-09T09:25:49;1.33;;;0.83;;
450;SDS011;212;48.748;9.174;2022-09-09T09:28:18;1.53;;;1.10;;
450;SDS011;212;48.748;9.174;2022-09-09T09:30:52;2.27;;;1.23;;
450;SDS011;212;48.748;9.174;2022-09-09T09:33:23;1.57;;;1.30;;
450;SDS011;212;48.748;9.174;2022-09-09T09:35:55;1.43;;;0.93;;
450;SDS011;212;48.748;9.174;2022-09-09T09:38:24;2.13;;;1.17;;
450;SDS011;212;48.748;9.174;2022-09-09T09:40:54;3.40;;;1.37;;
450;SDS011;212;48.748;9.174;2022-09-09T09:43:24;2.20;;;0.67;;
450;SDS011;212;48.748;9.174;2022-09-09T09:45:55;4.93;;;1.03;;
450;SDS011;212;48.748;9.174;2022-09-09T09:48:22;2.60;;;1.00;;
450;SDS011;212;48.748;9.174;2022-09-09T09:50:51;1.37;;;0.70;;
450;SDS011;212;48.748;9.174;2022-09-09T09:53:21;2.30;;;0.70;;
450;SDS011;212;48.748;9.174;2022-09-09T09:55:52;2.53;;;0.77;;
450;SDS011;212;48.748;9.174;2022-09-09T09:58:22;2.17;;;0.87;;
450;SDS011;212;48.748;9.174;2022-09-09T10:00:50;1.20;;;1.10;;
450;SDS011;212;48.748;9.174;2022-09-09T10:03:26;2.23;;;1.03;;
450;SDS011;212;48.748;9.174;2022-09-09T10:05:55;1.83;;;1.17;;
450;SDS011;212;48.748;9.174;2022-09-09T10:08:23;1.70;;;1.17;;
450;SDS011;212;48.748;9.174;2022-09-09T10:13:44;2.17;;;1.37;;
450;SDS011;212;48.748;9.174;2022-09-09T10:16:25;3.50;;;1.30;;
450;SDS011;212;48.748;9.174;2022-09-09T10:19:08;1.90;;;0.97;;
450;SDS011;212;48.748;9.174;2022-09-09T10:21:53;2.50;;;1.50;;
450;SDS011;212;48.748;9.174;2022-09-09T10:27:43;3.00;;;1.17;;
450;SDS011;212;48.748;9.174;2022-09-09T10:30:20;1.30;;;0.83;;
450;SDS011;212;48.748;9.174;2022-09-09T10:32:50;1.43;;;0.80;;
450;SDS011;212;48.748;9.174;2022-09-09T10:35:26;2.73;;;1.60;;
450;SDS011;212;48.748;9.174;2022-09-09T10:40:42;1.80;;;1.00;;
450;SDS011;212;48.748;9.174;2022-09-09T10:43:18;3.37;;;1.70;;
450;SDS011;212;48.748;9.174;2022-09-09T10:45:58;1.60;;;1.43;;
450;SDS011;212;48.748;9.174;2022-09-09T10:48:36;3.90;;;1.37;;
450;SDS011;212;48.748;9.174;2022-09-09T10:51:27;3.53;;;1.47;;
450;SDS011;212;48.748;9.174;2022-09-09T10:54:06;1.80;;;1.00;;
450;SDS011;212;48.748;9.174;2022-09-09T10:56:41;4.50;;;1.80;;
450;SDS011;212;48.748;9.174;2022-09-09T10:59:12;2.60;;;1.20;;
450;SDS011;212;48.748;9.174;2022-09-09T11:01:43;4.13;;;1.67;;
450;SDS011;212;48.748;9.174;2022-09-09T11:04:15;1.80;;;1.30;;
450;SDS011;212;48.748;9.174;2022-09-09T11:06:47;4.53;;;1.40;;
450;SDS011;212;48.748;9.174;2022-09-09T11:09:19;2.20;;;1.10;;
450;SDS011;212;48.748;9.174;2022-09-09T11:11:49;2.40;;;1.30;;
450;SDS011;212;48.748;9.174;2022-09-09T11:14:19;3.00;;;1.23;;
450;SDS011;212;48.748;9.174;2022-09-09T11:16:53;1.97;;;1.20;;
450;SDS011;212;48.748;9.174;2022-09-09T11:19:24;4.27;;;1.53;;
450;SDS011;212;48.748;9.174;2022-09-09T11:21:57;2.23;;;1.10;;
450;SDS011;212;48.748;9.174;2022-09-09T11:24:28;2.90;;;1.13;;
450;SDS011;212;48.748;9.174;2022-09-09T11:27:00;2.10;;;1.10;;
450;SDS011;212;48.748;9.174;2022-09-09T11:29:57;3.40;;;1.30;;
450;SDS011;212;48.748;9.174;2022-09-09T11:32:53;2.07;;;0.87;;
450;SDS011;212;48.748;9.174;2022-09-09T11:35:33;2.77;;;0.90;;
450;SDS011;212;48.748;9.174;2022-09-09T11:38:15;2.40;;;1.00;;
450;SDS011;212;48.748;9.174;2022-09-09T11:40:46;2.80;;;1.10;;
450;SDS011;212;48.748;9.174;2022-09-09T11:43:21;3.10;;;1.37;;
450;SDS011;212;48.748;9.174;2022-09-09T11:45:53;1.67;;;0.80;;
450;SDS011;212;48.748;9.174;2022-09-09T11:48:25;1.70;;;0.80;;
450;SDS011;212;48.748;9.174;2022-09-09T11:50:57;0.70;;;0.50;;
450;SDS011;212;48.748;9.174;2022-09-09T11:53:27;1.00;;;0.57;;
450;SDS011;212;48.748;9.174;2022-09-09T11:56:00;0.97;;;0.50;;
450;SDS011;212;48.748;9.174;2022-09-09T11:58:30;1.43;;;0.80;;
450;SDS011;212;48.748;9.174;2022-09-09T12:06:57;1.60;;;0.50;;
450;SDS011;212;48.748;9.174;2022-09-09T12:09:30;0.70;;;0.47;;
450;SDS011;212;48.748;9.174;2022-09-09T12:12:05;2.10;;;0.50;;
450;SDS011;212;48.748;9.174;2022-09-09T12:14:37;0.70;;;0.40;;
450;SDS011;212;48.748;9.174;2022-09-09T12:17:09;2.10;;;0.50;;
450;SDS011;212;48.748;9.174;2022-09-09T12:19:45;0.87;;;0.43;;
450;SDS011;212;48.748;9.174;2022-09-09T12:22:13;1.03;;;0.50;;
450;SDS011;212;48.748;9.174;2022-09-09T12:24:51;0.80;;;0.40;;
450;SDS011;212;48.748;9.174;2022-09-09T12:27:23;1.93;;;0.50;;
450;SDS011;212;48.748;9.174;2022-09-09T12:29:55;1.53;;;0.70;;
450;SDS011;212;48.748;9.174;2022-09-09T12:32:28;1.23;;;0.70;;
450;SDS011;212;48.748;9.174;2022-09-09T12:34:58;1.00;;;0.60;;
450;SDS011;212;48.748;9.174;2022-09-09T12:37:34;1.50;;;0.90;;
450;SDS011;212;48.748;9.174;2022-09-09T12:40:05;0.80;;;0.57;;
450;SDS011;212;48.748;9.174;2022-09-09T12:42:41;0.60;;;0.53;;
450;SDS011;212;48.748;9.174;2022-09-09T12:45:15;2.50;;;0.87;;
450;SDS011;212;48.748;9.174;2022-09-09T12:47:44;3.73;;;1.20;;
450;SDS011;212;48.748;9.174;2022-09-09T12:50:15;4.07;;;0.77;;
450;SDS011;212;48.748;9.174;2022-09-09T12:52:43;2.63;;;0.90;;
450;SDS011;212;48.748;9.174;2022-09-09T12:55:16;2.10;;;1.00;;
450;SDS011;212;48.748;9.174;2022-09-09T12:57:46;1.03;;;0.80;;
450;SDS011;212;48.748;9.174;2022-09-09T13:00:17;1.00;;;0.80;;
450;SDS011;212;48.748;9.174;2022-09-09T13:02:46;1.97;;;0.87;;
450;SDS011;212;48.748;9.174;2022-09-09T13:05:17;2.47;;;1.10;;
450;SDS011;212;48.748;9.174;2022-09-09T13:07:46;0.80;;;0.50;;
450;SDS011;212;48.748;9.174;2022-09-09T13:10:14;3.70;;;0.80;;
450;SDS011;212;48.748;9.174;2022-09-09T13:12:47;1.20;;;0.70;;
450;SDS011;212;48.748;9.174;2022-09-09T13:15:16;1.80;;;0.77;;
450;SDS011;212;48.748;9.174;2022-09-09T13:17:51;1.63;;;0.70;;
450;SDS011;212;48.748;9.174;2022-09-09T13:20:22;1.50;;;0.67;;
450;SDS011;212;48.748;9.174;2022-09-09T13:22:51;1.53;;;0.60;;
450;SDS011;212;48.748;9.174;2022-09-09T13:25:22;1.10;;;0.57;;
450;SDS011;212;48.748;9.174;2022-09-09T13:27:52;2.53;;;0.70;;
450;SDS011;212;48.748;9.174;2022-09-09T13:30:25;1.57;;;0.73;;
450;SDS011;212;48.748;9.174;2022-09-09T13:32:59;0.77;;;0.60;;
450;SDS011;212;48.748;9.174;2022-09-09T13:35:47;1.83;;;0.93;;
450;SDS011;212;48.748;9.174;2022-09-09T13:38:18;1.73;;;0.70;;
450;SDS011;212;48.748;9.174;2022-09-09T13:40:55;1.93;;;1.10;;
450;SDS011;212;48.748;9.174;2022-09-09T13:43:28;0.97;;;0.53;;
450;SDS011;212;48.748;9.174;2022-09-09T13:45:58;2.93;;;0.80;;
450;SDS011;212;48.748;9.174;2022-09-09T13:48:26;2.00;;;1.00;;
450;SDS011;212;48.748;9.174;2022-09-09T13:50:53;1.00;;;0.70;;
450;SDS011;212;48.748;9.174;2022-09-09T13:53:21;2.03;;;0.83;;
450;SDS011;212;48.748;9.174;2022-09-09T13:55:47;1.80;;;0.97;;
450;SDS011;212;48.748;9.174;2022-09-09T13:58:16;2.10;;;0.90;;
450;SDS011;212;48.748;9.174;2022-09-09T14:00:44;1.93;;;0.80;;
450;SDS011;212;48.748;9.174;2022-09-09T14:03:11;2.77;;;0.70;;
450;SDS011;212;48.748;9.174;2022-09-09T14:05:38;1.17;;;0.50;;
450;SDS011;212;48.748;9.174;2022-09-09T14:08:05;3.20;;;0.67;;
450;SDS011;212;48.748;9.174;2022-09-09T14:10:39;2.00;;;1.00;;
450;SDS011;212;48.748;9.174;2022-09-09T14:13:06;1.10;;;0.90;;
450;SDS011;212;48.748;9.174;2022-09-09T14:15:34;1.93;;;0.70;;
450;SDS011;212;48.748;9.174;2022-09-09T14:18:01;1.10;;;0.60;;
450;SDS011;212;48.748;9.174;2022-09-09T14:20:28;1.90;;;0.80;;
450;SDS011;212;48.748;9.174;2022-09-09T14:22:54;2.47;;;0.70;;
450;SDS011;212;48.748;9.174;2022-09-09T14:25:23;1.03;;;0.80;;
450;SDS011;212;48.748;9.174;2022-09-09T14:27:52;1.97;;;0.80;;
450;SDS011;212;48.748;9.174;2022-09-09T14:30:21;1.87;;;0.60;;
450;SDS011;212;48.748;9.174;2022-09-09T14:32:49;1.03;;;0.60;;
450;SDS011;212;48.748;9.174;2022-09-09T14:35:15;0.90;;;0.50;;
450;SDS011;212;48.748;9.174;2022-09-09T14:37:43;1.20;;;0.70;;
450;SDS011;212;48.748;9.174;2022-09-09T14:40:10;1.63;;;0.60;;
450;SDS011;212;48.748;9.174;2022-09-09T14:42:39;2.70;;;0.90;;
450;SDS011;212;48.748;9.174;2022-09-09T14:45:06;4.33;;;1.47;;
450;SDS011;212;48.748;9.174;2022-09-09T14:47:34;2.50;;;0.73;;
450;SDS011;212;48.748;9.174;2022-09-09T14:50:05;1.63;;;0.90;;
450;SDS011;212;48.748;9.174;2022-09-09T14:52:33;1.73;;;0.80;;
450;SDS011;212;48.748;9.174;2022-09-09T14:54:59;0.80;;;0.50;;
450;SDS011;212;48.748;9.174;2022-09-09T14:57:26;4.23;;;0.80;;
450;SDS011;212;48.748;9.174;2022-09-09T14:59:53;3.80;;;0.50;;
450;SDS011;212;48.748;9.174;2022-09-09T15:02:19;3.00;;;0.70;;
450;SDS011;212;48.748;9.174;2022-09-09T15:04:46;2.07;;;0.57;;
450;SDS011;212;48.748;9.174;2022-09-09T15:07:16;1.00;;;0.57;;
450;SDS011;212;48.748;9.174;2022-09-09T15:09:44;1.87;;;0.63;;
450;SDS011;212;48.748;9.174;2022-09-09T15:12:12;1.03;;;0.70;;
450;SDS011;212;48.748;9.174;2022-09-09T15:14:39;1.57;;;0.90;;
450;SDS011;212;48.748;9.174;2022-09-09T15:17:07;1.33;;;1.10;;
450;SDS011;212;48.748;9.174;2022-09-09T15:19:34;4.03;;;0.60;;
450;SDS011;212;48.748;9.174;2022-09-09T15:22:01;2.20;;;0.63;;
450;SDS011;212;48.748;9.174;2022-09-09T15:24:31;3.17;;;0.77;;
450;SDS011;212;48.748;9.174;2022-09-09T15:26:59;1.60;;;1.27;;
450;SDS011;212;48.748;9.174;2022-09-09T15:29:26;1.90;;;1.60;;
450;SDS011;212;48.748;9.174;2022-09-09T15:31:53;6.93;;;1.20;;
450;SDS011;212;48.748;9.174;2022-09-09T15:34:20;1.53;;;0.60;;
450;SDS011;212;48.748;9.174;2022-09-09T15:36:47;2.60;;;1.43;;
450;SDS011;212;48.748;9.174;2022-09-09T15:39:14;1.63;;;0.60;;
450;SDS011;212;48.748;9.174;2022-09-09T15:41:44;1.80;;;0.70;;
450;SDS011;212;48.748;9.174;2022-09-09T15:44:12;2.60;;;0.80;;
450;SDS011;212;48.748;9.174;2022-09-09T15:46:41;2.67;;;1.00;;
450;SDS011;212;48.748;9.174;2022-09-09T15:49:10;2.53;;;1.30;;
450;SDS011;212;48.748;9.174;2022-09-09T15:51:38;2.10;;;0.87;;
450;SDS011;212;48.748;9.174;2022-09-09T15:54:07;2.03;;;0.80;;
450;SDS011;212;48.748;9.174;2022-09-09T15:56:35;1.30;;;0.80;;
450;SDS011;212;48.748;9.174;2022-09-09T15:59:03;2.90;;;1.10;;
450;SDS011;212;48.748;9.174;2022-09-09T16:01:31;1.77;;;0.90;;
450;SDS011;212;48.748;9.174;2022-09-09T16:03:58;1.27;;;0.93;;
450;SDS011;212;48.748;9.174;2022-09-09T16:06:26;1.70;;;0.83;;
450;SDS011;212;48.748;9.174;2022-09-09T16:08:54;1.30;;;0.80;;
450;SDS011;212;48.748;9.174;2022-09-09T16:11:22;2.60;;;0.90;;
450;SDS011;212;48.748;9.174;2022-09-09T16:13:52;2.00;;;1.03;;
450;SDS011;212;48.748;9.174;2022-09-09T16:16:22;2.40;;;0.90;;
450;SDS011;212;48.748;9.174;2022-09-09T16:18:52;1.40;;;0.70;;
450;SDS011;212;48.748;9.174;2022-09-09T16:21:20;1.50;;;1.07;;